sensor_id;sensor_type;location;lat;lon;timestamp;temperature;humidity
23550;DHT22;11953;49.010;8.608;2023-03-26T00:00:12;9.90;99.90
23550;DHT22;11953;49.010;8.608;2023-03-26T00:02:59;9.90;99.90
23550;DHT22;11953;49.010;8.608;2023-03-26T00:05:48;9.80;99.90
23550;DHT22;11953;49.010;8.608;2023-03-26T00:08:36;9.80;99.90
23550;DHT22;11953;49.010;8.608;2023-03-26T00:11:25;9.90;99.90
23550;DHT22;11953;49.010;8.608;2023-03-26T00:14:12;9.90;99.90
23550;DHT22;11953;49.010;8.608;2023-03-26T00:17:02;9.80;99.90
23550;DHT22;11953;49.010;8.608;2023-03-26T00:19:48;9.70;99.90
23550;DHT22;11953;49.010;8.608;2023-03-26T00:22:36;9.60;99.90
23550;DHT22;11953;49.010;8.608;2023-03-26T00:25:23;9.60;99.90
23550;DHT22;11953;49.010;8.608;2023-03-26T00:28:09;9.60;99.90
23550;DHT22;11953;49.010;8.608;2023-03-26T00:30:58;9.80;99.90
23550;DHT22;11953;49.010;8.608;2023-03-26T00:33:46;9.70;99.90
23550;DHT22;11953;49.010;8.608;2023-03-26T00:36:32;9.30;99.90
23550;DHT22;11953;49.010;8.608;2023-03-26T00:39:22;9.20;99.90
23550;DHT22;11953;49.010;8.608;2023-03-26T00:42:09;9.10;99.90
23550;DHT22;11953;49.010;8.608;2023-03-26T00:44:59;8.70;99.90
23550;DHT22;11953;49.010;8.608;2023-03-26T00:47:46;8.60;99.90
23550;DHT22;11953;49.010;8.608;2023-03-26T00:50:33;8.40;99.90
23550;DHT22;11953;49.010;8.608;2023-03-26T00:53:20;8.40;99.90
23550;DHT22;11953;49.010;8.608;2023-03-26T00:56:08;8.40;99.90
23550;DHT22;11953;49.010;8.608;2023-03-26T00:58:55;8.50;99.90
23550;DHT22;11953;49.010;8.608;2023-03-26T01:01:44;8.60;99.90
23550;DHT22;11953;49.010;8.608;2023-03-26T01:04:33;8.70;99.90
23550;DHT22;11953;49.010;8.608;2023-03-26T01:07:24;8.80;99.90
23550;DHT22;11953;49.010;8.608;2023-03-26T01:10:13;8.90;99.90
23550;DHT22;11953;49.010;8.608;2023-03-26T01:13:01;9.10;99.90
23550;DHT22;11953;49.010;8.608;2023-03-26T01:15:49;9.20;99.90
23550;DHT22;11953;49.010;8.608;2023-03-26T01:18:38;9.20;99.90
23550;DHT22;11953;49.010;8.608;2023-03-26T01:21:27;9.20;99.90
23550;DHT22;11953;49.010;8.608;2023-03-26T01:24:17;9.30;99.90
23550;DHT22;11953;49.010;8.608;2023-03-26T01:27:11;9.30;99.90
23550;DHT22;11953;49.010;8.608;2023-03-26T01:30:08;9.50;99.90
23550;DHT22;11953;49.010;8.608;2023-03-26T01:33:02;9.60;99.90
23550;DHT22;11953;49.010;8.608;2023-03-26T01:35:53;9.70;99.90
23550;DHT22;11953;49.010;8.608;2023-03-26T01:38:48;9.70;99.90
23550;DHT22;11953;49.010;8.608;2023-03-26T01:41:42;9.80;99.90
23550;DHT22;11953;49.010;8.608;2023-03-26T01:44:35;9.80;99.90
23550;DHT22;11953;49.010;8.608;2023-03-26T01:47:24;9.70;99.90
23550;DHT22;11953;49.010;8.608;2023-03-26T01:50:11;9.80;99.90
23550;DHT22;11953;49.010;8.608;2023-03-26T01:53:00;9.80;99.90
23550;DHT22;11953;49.010;8.608;2023-03-26T01:55:55;9.80;99.90
23550;DHT22;11953;49.010;8.608;2023-03-26T01:59:03;9.80;99.90
23550;DHT22;11953;49.010;8.608;2023-03-26T02:01:57;9.80;99.90
23550;DHT22;11953;49.010;8.608;2023-03-26T02:04:50;9.80;99.90
23550;DHT22;11953;49.010;8.608;2023-03-26T02:07:42;9.90;99.90
23550;DHT22;11953;49.010;8.608;2023-03-26T02:10:32;9.80;99.90
23550;DHT22;11953;49.010;8.608;2023-03-26T02:13:21;9.50;99.90
23550;DHT22;11953;49.010;8.608;2023-03-26T02:16:12;9.30;99.90
23550;DHT22;11953;49.010;8.608;2023-03-26T02:19:01;9.10;99.90
23550;DHT22;11953;49.010;8.608;2023-03-26T02:21:49;9.20;99.90
23550;DHT22;11953;49.010;8.608;2023-03-26T02:24:37;9.20;99.90
23550;DHT22;11953;49.010;8.608;2023-03-26T02:27:24;9.30;99.90
23550;DHT22;11953;49.010;8.608;2023-03-26T02:30:13;9.50;99.90
23550;DHT22;11953;49.010;8.608;2023-03-26T02:33:04;9.50;99.90
23550;DHT22;11953;49.010;8.608;2023-03-26T02:35:58;9.60;99.90
23550;DHT22;11953;49.010;8.608;2023-03-26T02:38:46;9.60;99.90
23550;DHT22;11953;49.010;8.608;2023-03-26T02:41:33;9.70;99.90
23550;DHT22;11953;49.010;8.608;2023-03-26T02:44:26;9.70;99.90
23550;DHT22;11953;49.010;8.608;2023-03-26T02:47:16;9.60;99.90
23550;DHT22;11953;49.010;8.608;2023-03-26T02:50:24;9.60;99.90
23550;DHT22;11953;49.010;8.608;2023-03-26T02:53:40;9.70;99.90
23550;DHT22;11953;49.010;8.608;2023-03-26T02:56:44;9.80;99.90
23550;DHT22;11953;49.010;8.608;2023-03-26T02:59:49;9.70;99.90
23550;DHT22;11953;49.010;8.608;2023-03-26T03:02:55;9.60;99.90
23550;DHT22;11953;49.010;8.608;2023-03-26T03:06:07;9.60;99.90
23550;DHT22;11953;49.010;8.608;2023-03-26T03:09:01;9.40;99.90
23550;DHT22;11953;49.010;8.608;2023-03-26T03:11:49;9.30;99.90
23550;DHT22;11953;49.010;8.608;2023-03-26T03:14:37;9.30;99.90
23550;DHT22;11953;49.010;8.608;2023-03-26T03:17:25;9.20;99.90
23550;DHT22;11953;49.010;8.608;2023-03-26T03:20:12;9.10;99.90
23550;DHT22;11953;49.010;8.608;2023-03-26T03:23:01;9.00;99.90
23550;DHT22;11953;49.010;8.608;2023-03-26T03:25:48;9.20;99.90
23550;DHT22;11953;49.010;8.608;2023-03-26T03:28:37;9.30;99.90
23550;DHT22;11953;49.010;8.608;2023-03-26T03:31:25;9.30;99.90
23550;DHT22;11953;49.010;8.608;2023-03-26T03:34:18;9.00;99.90
23550;DHT22;11953;49.010;8.608;2023-03-26T03:37:08;8.90;99.90
23550;DHT22;11953;49.010;8.608;2023-03-26T03:40:08;8.70;99.90
23550;DHT22;11953;49.010;8.608;2023-03-26T03:42:56;8.60;99.90
23550;DHT22;11953;49.010;8.608;2023-03-26T03:45:52;8.50;99.90
23550;DHT22;11953;49.010;8.608;2023-03-26T03:48:50;8.40;99.90
23550;DHT22;11953;49.010;8.608;2023-03-26T03:51:45;8.50;99.90
23550;DHT22;11953;49.010;8.608;2023-03-26T03:54:42;8.60;99.90
23550;DHT22;11953;49.010;8.608;2023-03-26T03:57:37;8.80;99.90
23550;DHT22;11953;49.010;8.608;2023-03-26T04:00:29;8.80;99.90
23550;DHT22;11953;49.010;8.608;2023-03-26T04:03:36;8.80;99.90
23550;DHT22;11953;49.010;8.608;2023-03-26T04:06:29;8.70;99.90
23550;DHT22;11953;49.010;8.608;2023-03-26T04:09:15;8.70;99.90
23550;DHT22;11953;49.010;8.608;2023-03-26T04:12:04;8.80;99.90
23550;DHT22;11953;49.010;8.608;2023-03-26T04:14:58;8.90;99.90
23550;DHT22;11953;49.010;8.608;2023-03-26T04:17:45;8.90;99.90
23550;DHT22;11953;49.010;8.608;2023-03-26T04:20:35;8.80;99.90
23550;DHT22;11953;49.010;8.608;2023-03-26T04:23:21;8.90;99.90
23550;DHT22;11953;49.010;8.608;2023-03-26T04:26:16;9.10;99.90
23550;DHT22;11953;49.010;8.608;2023-03-26T04:29:26;9.10;99.90
23550;DHT22;11953;49.010;8.608;2023-03-26T04:32:21;9.00;99.90
23550;DHT22;11953;49.010;8.608;2023-03-26T04:35:12;8.80;99.90
23550;DHT22;11953;49.010;8.608;2023-03-26T04:38:05;8.60;99.90
23550;DHT22;11953;49.010;8.608;2023-03-26T04:40:56;8.50;99.90
23550;DHT22;11953;49.010;8.608;2023-03-26T04:44:02;8.50;99.90
23550;DHT22;11953;49.010;8.608;2023-03-26T04:47:09;8.50;99.90
23550;DHT22;11953;49.010;8.608;2023-03-26T04:50:03;8.50;99.90
23550;DHT22;11953;49.010;8.608;2023-03-26T04:52:53;8.50;99.90
23550;DHT22;11953;49.010;8.608;2023-03-26T04:56:04;8.50;99.90
23550;DHT22;11953;49.010;8.608;2023-03-26T04:59:18;8.50;99.90
23550;DHT22;11953;49.010;8.608;2023-03-26T05:02:12;8.60;99.90
23550;DHT22;11953;49.010;8.608;2023-03-26T05:05:07;8.60;99.90
23550;DHT22;11953;49.010;8.608;2023-03-26T05:07:55;8.70;99.90
23550;DHT22;11953;49.010;8.608;2023-03-26T05:10:41;8.80;99.90
23550;DHT22;11953;49.010;8.608;2023-03-26T05:13:37;8.90;99.90
23550;DHT22;11953;49.010;8.608;2023-03-26T05:16:30;8.90;99.90
23550;DHT22;11953;49.010;8.608;2023-03-26T05:19:24;8.70;99.90
23550;DHT22;11953;49.010;8.608;2023-03-26T05:22:13;8.70;99.90
23550;DHT22;11953;49.010;8.608;2023-03-26T05:25:19;8.70;99.90
23550;DHT22;11953;49.010;8.608;2023-03-26T05:28:07;8.80;99.90
23550;DHT22;11953;49.010;8.608;2023-03-26T05:31:09;8.80;99.90
23550;DHT22;11953;49.010;8.608;2023-03-26T05:34:01;8.90;99.90
23550;DHT22;11953;49.010;8.608;2023-03-26T05:36:47;8.90;99.90
23550;DHT22;11953;49.010;8.608;2023-03-26T05:40:12;8.90;99.90
23550;DHT22;11953;49.010;8.608;2023-03-26T05:43:09;9.00;99.90
23550;DHT22;11953;49.010;8.608;2023-03-26T05:46:05;9.00;99.90
23550;DHT22;11953;49.010;8.608;2023-03-26T05:48:52;9.00;99.90
23550;DHT22;11953;49.010;8.608;2023-03-26T05:51:39;9.20;99.90
23550;DHT22;11953;49.010;8.608;2023-03-26T05:54:46;9.10;99.90
23550;DHT22;11953;49.010;8.608;2023-03-26T05:57:53;9.00;99.90
23550;DHT22;11953;49.010;8.608;2023-03-26T06:00:59;9.10;99.90
23550;DHT22;11953;49.010;8.608;2023-03-26T06:04:10;9.10;99.90
23550;DHT22;11953;49.010;8.608;2023-03-26T06:07:04;9.30;99.90
23550;DHT22;11953;49.010;8.608;2023-03-26T06:09:55;9.40;99.90
23550;DHT22;11953;49.010;8.608;2023-03-26T06:12:41;9.20;99.90
23550;DHT22;11953;49.010;8.608;2023-03-26T06:15:31;9.00;99.90
23550;DHT22;11953;49.010;8.608;2023-03-26T06:18:20;9.10;99.90
23550;DHT22;11953;49.010;8.608;2023-03-26T06:21:17;9.10;99.90
23550;DHT22;11953;49.010;8.608;2023-03-26T06:24:14;9.10;99.90
23550;DHT22;11953;49.010;8.608;2023-03-26T06:27:11;9.30;99.90
23550;DHT22;11953;49.010;8.608;2023-03-26T06:30:31;9.40;99.90
23550;DHT22;11953;49.010;8.608;2023-03-26T06:33:24;9.30;99.90
23550;DHT22;11953;49.010;8.608;2023-03-26T06:36:11;9.40;99.90
23550;DHT22;11953;49.010;8.608;2023-03-26T06:38:58;9.30;99.90
23550;DHT22;11953;49.010;8.608;2023-03-26T06:41:52;9.40;99.90
23550;DHT22;11953;49.010;8.608;2023-03-26T06:44:58;9.50;99.90
23550;DHT22;11953;49.010;8.608;2023-03-26T06:48:09;9.50;99.90
23550;DHT22;11953;49.010;8.608;2023-03-26T06:51:16;9.60;99.90
23550;DHT22;11953;49.010;8.608;2023-03-26T06:54:35;9.60;99.90
23550;DHT22;11953;49.010;8.608;2023-03-26T06:57:42;9.60;99.90
23550;DHT22;11953;49.010;8.608;2023-03-26T07:00:32;9.70;99.90
23550;DHT22;11953;49.010;8.608;2023-03-26T07:03:40;9.50;99.90
23550;DHT22;11953;49.010;8.608;2023-03-26T07:06:46;9.40;99.90
23550;DHT22;11953;49.010;8.608;2023-03-26T07:09:51;9.40;99.90
23550;DHT22;11953;49.010;8.608;2023-03-26T07:13:01;9.40;99.90
23550;DHT22;11953;49.010;8.608;2023-03-26T07:16:06;9.30;99.90
23550;DHT22;11953;49.010;8.608;2023-03-26T07:19:33;9.30;99.90
23550;DHT22;11953;49.010;8.608;2023-03-26T07:22:21;9.30;99.90
23550;DHT22;11953;49.010;8.608;2023-03-26T07:25:25;9.30;99.90
23550;DHT22;11953;49.010;8.608;2023-03-26T07:28:34;9.40;99.90
23550;DHT22;11953;49.010;8.608;2023-03-26T07:31:26;9.50;99.90
23550;DHT22;11953;49.010;8.608;2023-03-26T07:34:53;9.70;99.90
23550;DHT22;11953;49.010;8.608;2023-03-26T07:38:17;9.60;99.90
23550;DHT22;11953;49.010;8.608;2023-03-26T07:41:21;9.50;99.90
23550;DHT22;11953;49.010;8.608;2023-03-26T07:44:49;9.20;99.90
23550;DHT22;11953;49.010;8.608;2023-03-26T07:48:15;8.90;99.90
23550;DHT22;11953;49.010;8.608;2023-03-26T07:51:30;8.60;99.90
23550;DHT22;11953;49.010;8.608;2023-03-26T07:54:27;8.60;99.90
23550;DHT22;11953;49.010;8.608;2023-03-26T07:57:44;8.50;99.90
23550;DHT22;11953;49.010;8.608;2023-03-26T08:00:52;8.60;99.90
23550;DHT22;11953;49.010;8.608;2023-03-26T08:03:53;8.60;99.90
23550;DHT22;11953;49.010;8.608;2023-03-26T08:07:29;8.70;99.90
23550;DHT22;11953;49.010;8.608;2023-03-26T08:10:42;8.90;99.90
23550;DHT22;11953;49.010;8.608;2023-03-26T08:13:40;9.00;99.90
23550;DHT22;11953;49.010;8.608;2023-03-26T08:16:34;9.10;99.90
23550;DHT22;11953;49.010;8.608;2023-03-26T08:19:39;9.30;99.90
23550;DHT22;11953;49.010;8.608;2023-03-26T08:22:33;9.40;99.90
23550;DHT22;11953;49.010;8.608;2023-03-26T08:25:26;9.20;99.90
23550;DHT22;11953;49.010;8.608;2023-03-26T08:28:25;9.00;99.90
23550;DHT22;11953;49.010;8.608;2023-03-26T08:31:16;9.10;99.90
23550;DHT22;11953;49.010;8.608;2023-03-26T08:34:04;9.10;99.90
23550;DHT22;11953;49.010;8.608;2023-03-26T08:36:51;9.00;99.90
23550;DHT22;11953;49.010;8.608;2023-03-26T08:39:40;8.90;99.90
23550;DHT22;11953;49.010;8.608;2023-03-26T08:42:50;9.00;99.90
23550;DHT22;11953;49.010;8.608;2023-03-26T08:46:06;8.80;99.90
23550;DHT22;11953;49.010;8.608;2023-03-26T08:49:28;8.70;99.90
23550;DHT22;11953;49.010;8.608;2023-03-26T08:55:48;9.10;99.90
23550;DHT22;11953;49.010;8.608;2023-03-26T08:58:59;9.60;99.90
23550;DHT22;11953;49.010;8.608;2023-03-26T09:12:37;10.60;99.90
23550;DHT22;11953;49.010;8.608;2023-03-26T09:15:52;10.60;99.90
23550;DHT22;11953;49.010;8.608;2023-03-26T09:22:24;10.80;99.90
23550;DHT22;11953;49.010;8.608;2023-03-26T09:25:40;10.90;99.90
23550;DHT22;11953;49.010;8.608;2023-03-26T09:28:58;10.90;99.90
23550;DHT22;11953;49.010;8.608;2023-03-26T09:32:07;10.90;99.90
23550;DHT22;11953;49.010;8.608;2023-03-26T09:35:10;11.00;99.90
23550;DHT22;11953;49.010;8.608;2023-03-26T09:37:59;11.10;99.90
23550;DHT22;11953;49.010;8.608;2023-03-26T09:40:52;11.00;99.90
23550;DHT22;11953;49.010;8.608;2023-03-26T09:44:09;11.10;99.90
23550;DHT22;11953;49.010;8.608;2023-03-26T09:47:22;11.00;99.90
23550;DHT22;11953;49.010;8.608;2023-03-26T09:50:28;11.00;99.90
23550;DHT22;11953;49.010;8.608;2023-03-26T09:53:34;11.30;99.90
23550;DHT22;11953;49.010;8.608;2023-03-26T09:56:30;11.90;99.90
23550;DHT22;11953;49.010;8.608;2023-03-26T09:59:39;12.10;99.90
23550;DHT22;11953;49.010;8.608;2023-03-26T10:02:47;12.10;99.90
23550;DHT22;11953;49.010;8.608;2023-03-26T10:05:57;12.00;99.90
23550;DHT22;11953;49.010;8.608;2023-03-26T10:12:08;12.10;99.90
23550;DHT22;11953;49.010;8.608;2023-03-26T10:15:12;12.50;99.90
23550;DHT22;11953;49.010;8.608;2023-03-26T10:18:12;13.00;99.90
23550;DHT22;11953;49.010;8.608;2023-03-26T10:21:18;13.10;99.90
23550;DHT22;11953;49.010;8.608;2023-03-26T10:24:19;13.00;99.90
23550;DHT22;11953;49.010;8.608;2023-03-26T10:27:16;12.90;99.90
23550;DHT22;11953;49.010;8.608;2023-03-26T10:30:52;12.80;99.90
23550;DHT22;11953;49.010;8.608;2023-03-26T10:33:53;13.00;99.90
23550;DHT22;11953;49.010;8.608;2023-03-26T10:36:49;14.00;99.90
23550;DHT22;11953;49.010;8.608;2023-03-26T10:40:10;14.80;99.90
23550;DHT22;11953;49.010;8.608;2023-03-26T10:47:09;13.90;99.90
23550;DHT22;11953;49.010;8.608;2023-03-26T10:50:19;13.30;99.90
23550;DHT22;11953;49.010;8.608;2023-03-26T10:53:24;13.00;99.90
23550;DHT22;11953;49.010;8.608;2023-03-26T10:56:19;13.00;99.90
23550;DHT22;11953;49.010;8.608;2023-03-26T10:59:11;12.80;99.90
23550;DHT22;11953;49.010;8.608;2023-03-26T11:02:25;13.00;99.90
23550;DHT22;11953;49.010;8.608;2023-03-26T11:05:26;13.50;99.90
23550;DHT22;11953;49.010;8.608;2023-03-26T11:08:21;14.30;99.90
23550;DHT22;11953;49.010;8.608;2023-03-26T11:11:21;14.80;99.90
23550;DHT22;11953;49.010;8.608;2023-03-26T11:14:16;15.30;99.90
23550;DHT22;11953;49.010;8.608;2023-03-26T11:17:27;15.70;99.90
23550;DHT22;11953;49.010;8.608;2023-03-26T11:20:33;16.10;99.90
23550;DHT22;11953;49.010;8.608;2023-03-26T11:23:32;15.80;99.90
23550;DHT22;11953;49.010;8.608;2023-03-26T11:26:23;15.40;99.90
23550;DHT22;11953;49.010;8.608;2023-03-26T11:29:27;14.90;99.90
23550;DHT22;11953;49.010;8.608;2023-03-26T11:32:22;14.70;99.90
23550;DHT22;11953;49.010;8.608;2023-03-26T11:35:17;14.80;99.90
23550;DHT22;11953;49.010;8.608;2023-03-26T11:38:29;14.80;99.90
23550;DHT22;11953;49.010;8.608;2023-03-26T11:41:24;15.00;99.90
23550;DHT22;11953;49.010;8.608;2023-03-26T11:44:26;15.50;99.90
23550;DHT22;11953;49.010;8.608;2023-03-26T11:47:19;16.10;99.90
23550;DHT22;11953;49.010;8.608;2023-03-26T11:50:14;16.20;99.90
23550;DHT22;11953;49.010;8.608;2023-03-26T11:53:10;16.30;99.20
23550;DHT22;11953;49.010;8.608;2023-03-26T11:56:00;16.50;98.80
23550;DHT22;11953;49.010;8.608;2023-03-26T11:58:52;16.80;98.90
23550;DHT22;11953;49.010;8.608;2023-03-26T12:01:43;16.90;98.40
23550;DHT22;11953;49.010;8.608;2023-03-26T12:04:36;16.80;96.70
23550;DHT22;11953;49.010;8.608;2023-03-26T12:07:31;16.20;97.90
23550;DHT22;11953;49.010;8.608;2023-03-26T12:10:25;16.10;97.90
23550;DHT22;11953;49.010;8.608;2023-03-26T12:13:28;15.60;97.90
23550;DHT22;11953;49.010;8.608;2023-03-26T12:16:18;15.50;97.30
23550;DHT22;11953;49.010;8.608;2023-03-26T12:19:17;15.70;97.60
23550;DHT22;11953;49.010;8.608;2023-03-26T12:22:04;15.60;97.30
23550;DHT22;11953;49.010;8.608;2023-03-26T12:25:11;15.70;97.30
23550;DHT22;11953;49.010;8.608;2023-03-26T12:27:59;16.20;98.00
23550;DHT22;11953;49.010;8.608;2023-03-26T12:30:51;16.20;97.00
23550;DHT22;11953;49.010;8.608;2023-03-26T12:33:44;16.30;97.20
23550;DHT22;11953;49.010;8.608;2023-03-26T12:36:36;16.20;96.50
23550;DHT22;11953;49.010;8.608;2023-03-26T12:39:30;16.30;96.70
23550;DHT22;11953;49.010;8.608;2023-03-26T12:42:39;16.40;96.10
23550;DHT22;11953;49.010;8.608;2023-03-26T12:45:50;16.60;95.20
23550;DHT22;11953;49.010;8.608;2023-03-26T12:49:02;17.30;96.30
23550;DHT22;11953;49.010;8.608;2023-03-26T12:51:51;17.60;94.10
23550;DHT22;11953;49.010;8.608;2023-03-26T12:54:48;17.40;94.10
23550;DHT22;11953;49.010;8.608;2023-03-26T12:57:41;17.30;94.10
23550;DHT22;11953;49.010;8.608;2023-03-26T13:00:41;17.10;93.80
23550;DHT22;11953;49.010;8.608;2023-03-26T13:03:36;16.90;94.10
23550;DHT22;11953;49.010;8.608;2023-03-26T13:06:35;16.40;94.30
23550;DHT22;11953;49.010;8.608;2023-03-26T13:10:14;16.50;94.80
23550;DHT22;11953;49.010;8.608;2023-03-26T13:13:21;16.90;95.30
23550;DHT22;11953;49.010;8.608;2023-03-26T13:16:21;17.00;94.80
23550;DHT22;11953;49.010;8.608;2023-03-26T13:19:14;17.00;94.50
23550;DHT22;11953;49.010;8.608;2023-03-26T13:22:10;16.90;95.10
23550;DHT22;11953;49.010;8.608;2023-03-26T13:25:06;17.00;95.20
23550;DHT22;11953;49.010;8.608;2023-03-26T13:28:02;16.90;95.30
23550;DHT22;11953;49.010;8.608;2023-03-26T13:31:00;16.90;96.30
23550;DHT22;11953;49.010;8.608;2023-03-26T13:33:57;16.60;94.40
23550;DHT22;11953;49.010;8.608;2023-03-26T13:36:50;16.50;95.40
23550;DHT22;11953;49.010;8.608;2023-03-26T13:39:48;16.30;95.30
23550;DHT22;11953;49.010;8.608;2023-03-26T13:42:44;16.10;96.00
23550;DHT22;11953;49.010;8.608;2023-03-26T13:45:45;15.60;94.30
23550;DHT22;11953;49.010;8.608;2023-03-26T13:48:41;15.40;95.20
23550;DHT22;11953;49.010;8.608;2023-03-26T13:51:35;15.30;95.60
23550;DHT22;11953;49.010;8.608;2023-03-26T13:54:24;15.20;96.50
23550;DHT22;11953;49.010;8.608;2023-03-26T13:57:17;15.10;96.10
23550;DHT22;11953;49.010;8.608;2023-03-26T14:00:11;14.80;93.30
23550;DHT22;11953;49.010;8.608;2023-03-26T14:03:06;14.60;94.00
23550;DHT22;11953;49.010;8.608;2023-03-26T14:05:59;14.30;93.90
23550;DHT22;11953;49.010;8.608;2023-03-26T14:08:53;14.10;94.90
23550;DHT22;11953;49.010;8.608;2023-03-26T14:11:50;13.90;95.90
23550;DHT22;11953;49.010;8.608;2023-03-26T14:14:44;13.50;96.80
23550;DHT22;11953;49.010;8.608;2023-03-26T14:17:37;13.30;98.80
23550;DHT22;11953;49.010;8.608;2023-03-26T14:20:51;13.20;99.90
23550;DHT22;11953;49.010;8.608;2023-03-26T14:24:10;12.90;99.90
23550;DHT22;11953;49.010;8.608;2023-03-26T14:27:32;12.80;99.90
23550;DHT22;11953;49.010;8.608;2023-03-26T14:30:57;12.50;99.90
23550;DHT22;11953;49.010;8.608;2023-03-26T14:34:19;11.90;99.90
23550;DHT22;11953;49.010;8.608;2023-03-26T14:40:54;11.00;99.90
23550;DHT22;11953;49.010;8.608;2023-03-26T14:47:05;10.80;99.90
23550;DHT22;11953;49.010;8.608;2023-03-26T14:50:27;10.70;99.90
23550;DHT22;11953;49.010;8.608;2023-03-26T14:53:27;10.60;99.90
23550;DHT22;11953;49.010;8.608;2023-03-26T14:56:34;10.40;99.90
23550;DHT22;11953;49.010;8.608;2023-03-26T14:59:53;10.50;99.90
23550;DHT22;11953;49.010;8.608;2023-03-26T15:03:29;10.60;99.90
23550;DHT22;11953;49.010;8.608;2023-03-26T15:10:10;10.50;99.90
23550;DHT22;11953;49.010;8.608;2023-03-26T15:13:13;10.50;99.90
23550;DHT22;11953;49.010;8.608;2023-03-26T15:16:37;10.50;99.90
23550;DHT22;11953;49.010;8.608;2023-03-26T15:20:14;10.40;99.90
23550;DHT22;11953;49.010;8.608;2023-03-26T15:23:45;10.50;99.90
23550;DHT22;11953;49.010;8.608;2023-03-26T15:27:17;10.20;99.90
23550;DHT22;11953;49.010;8.608;2023-03-26T15:30:31;10.20;99.90
23550;DHT22;11953;49.010;8.608;2023-03-26T15:40:41;9.90;99.90
23550;DHT22;11953;49.010;8.608;2023-03-26T15:50:48;9.90;99.90
23550;DHT22;11953;49.010;8.608;2023-03-26T15:53:46;9.90;99.90
23550;DHT22;11953;49.010;8.608;2023-03-26T15:56:49;9.80;99.90
23550;DHT22;11953;49.010;8.608;2023-03-26T15:59:45;9.80;99.90
23550;DHT22;11953;49.010;8.608;2023-03-26T16:02:39;9.90;99.90
23550;DHT22;11953;49.010;8.608;2023-03-26T16:05:38;10.00;99.90
23550;DHT22;11953;49.010;8.608;2023-03-26T16:08:31;10.10;99.90
23550;DHT22;11953;49.010;8.608;2023-03-26T16:11:53;10.10;99.90
23550;DHT22;11953;49.010;8.608;2023-03-26T16:14:45;10.10;99.90
23550;DHT22;11953;49.010;8.608;2023-03-26T16:24:34;10.00;99.90
23550;DHT22;11953;49.010;8.608;2023-03-26T16:27:27;10.00;99.90
23550;DHT22;11953;49.010;8.608;2023-03-26T16:30:28;9.90;99.90
23550;DHT22;11953;49.010;8.608;2023-03-26T16:33:18;10.00;99.90
23550;DHT22;11953;49.010;8.608;2023-03-26T16:36:15;9.90;99.90
23550;DHT22;11953;49.010;8.608;2023-03-26T16:39:18;9.80;99.90
23550;DHT22;11953;49.010;8.608;2023-03-26T16:42:33;9.70;99.90
23550;DHT22;11953;49.010;8.608;2023-03-26T16:45:27;9.70;99.90
23550;DHT22;11953;49.010;8.608;2023-03-26T16:48:22;9.60;99.90
23550;DHT22;11953;49.010;8.608;2023-03-26T16:51:14;9.70;99.90
23550;DHT22;11953;49.010;8.608;2023-03-26T16:54:08;9.70;99.90
23550;DHT22;11953;49.010;8.608;2023-03-26T16:57:00;9.70;99.90
23550;DHT22;11953;49.010;8.608;2023-03-26T17:03:16;9.70;99.90
23550;DHT22;11953;49.010;8.608;2023-03-26T17:06:27;9.70;99.90
23550;DHT22;11953;49.010;8.608;2023-03-26T17:09:27;9.70;99.90
23550;DHT22;11953;49.010;8.608;2023-03-26T17:12:24;9.70;99.90
23550;DHT22;11953;49.010;8.608;2023-03-26T17:15:25;9.70;99.90
23550;DHT22;11953;49.010;8.608;2023-03-26T17:18:23;9.80;99.90
23550;DHT22;11953;49.010;8.608;2023-03-26T17:21:15;9.70;99.90
23550;DHT22;11953;49.010;8.608;2023-03-26T17:24:09;9.70;99.90
23550;DHT22;11953;49.010;8.608;2023-03-26T17:27:07;9.60;99.90
23550;DHT22;11953;49.010;8.608;2023-03-26T17:33:31;9.60;99.90
23550;DHT22;11953;49.010;8.608;2023-03-26T17:36:28;9.50;99.90
23550;DHT22;11953;49.010;8.608;2023-03-26T17:43:02;9.50;99.90
23550;DHT22;11953;49.010;8.608;2023-03-26T17:45:49;9.50;99.90
23550;DHT22;11953;49.010;8.608;2023-03-26T17:48:56;9.50;99.90
23550;DHT22;11953;49.010;8.608;2023-03-26T17:51:49;9.60;99.90
23550;DHT22;11953;49.010;8.608;2023-03-26T17:54:40;9.60;99.90
23550;DHT22;11953;49.010;8.608;2023-03-26T17:57:35;9.50;99.90
23550;DHT22;11953;49.010;8.608;2023-03-26T18:00:28;9.60;99.90
23550;DHT22;11953;49.010;8.608;2023-03-26T18:03:18;9.60;99.90
23550;DHT22;11953;49.010;8.608;2023-03-26T18:06:11;9.50;99.90
23550;DHT22;11953;49.010;8.608;2023-03-26T18:09:11;9.40;99.90
23550;DHT22;11953;49.010;8.608;2023-03-26T18:12:27;9.40;99.90
23550;DHT22;11953;49.010;8.608;2023-03-26T18:15:35;9.40;99.90
23550;DHT22;11953;49.010;8.608;2023-03-26T18:18:29;9.30;99.90
23550;DHT22;11953;49.010;8.608;2023-03-26T18:21:23;9.30;99.90
23550;DHT22;11953;49.010;8.608;2023-03-26T18:24:14;9.30;99.90
23550;DHT22;11953;49.010;8.608;2023-03-26T18:27:05;9.30;99.90
23550;DHT22;11953;49.010;8.608;2023-03-26T18:30:01;9.30;99.90
23550;DHT22;11953;49.010;8.608;2023-03-26T18:32:53;9.30;99.90
23550;DHT22;11953;49.010;8.608;2023-03-26T18:35:49;9.20;99.90
23550;DHT22;11953;49.010;8.608;2023-03-26T18:38:37;9.10;99.90
23550;DHT22;11953;49.010;8.608;2023-03-26T18:41:30;9.10;99.90
23550;DHT22;11953;49.010;8.608;2023-03-26T18:44:18;9.10;99.90
23550;DHT22;11953;49.010;8.608;2023-03-26T18:47:06;9.00;99.90
23550;DHT22;11953;49.010;8.608;2023-03-26T18:49:55;9.00;99.90
23550;DHT22;11953;49.010;8.608;2023-03-26T18:52:43;9.00;99.90
23550;DHT22;11953;49.010;8.608;2023-03-26T18:55:32;9.10;99.90
23550;DHT22;11953;49.010;8.608;2023-03-26T18:58:26;9.10;99.90
23550;DHT22;11953;49.010;8.608;2023-03-26T19:01:15;9.10;99.90
23550;DHT22;11953;49.010;8.608;2023-03-26T19:04:11;9.10;99.90
23550;DHT22;11953;49.010;8.608;2023-03-26T19:06:58;9.00;99.90
23550;DHT22;11953;49.010;8.608;2023-03-26T19:09:46;9.00;99.90
23550;DHT22;11953;49.010;8.608;2023-03-26T19:12:35;9.00;99.90
23550;DHT22;11953;49.010;8.608;2023-03-26T19:15:23;8.80;99.90
23550;DHT22;11953;49.010;8.608;2023-03-26T19:18:15;8.90;99.90
23550;DHT22;11953;49.010;8.608;2023-03-26T19:21:03;8.80;99.90
23550;DHT22;11953;49.010;8.608;2023-03-26T19:23:50;8.80;99.90
23550;DHT22;11953;49.010;8.608;2023-03-26T19:26:38;8.80;99.90
23550;DHT22;11953;49.010;8.608;2023-03-26T19:29:29;8.80;99.90
23550;DHT22;11953;49.010;8.608;2023-03-26T19:32:18;8.80;99.90
23550;DHT22;11953;49.010;8.608;2023-03-26T19:35:19;8.90;99.90
23550;DHT22;11953;49.010;8.608;2023-03-26T19:38:20;9.00;99.90
23550;DHT22;11953;49.010;8.608;2023-03-26T19:41:18;8.90;99.90
23550;DHT22;11953;49.010;8.608;2023-03-26T19:44:18;8.80;99.90
23550;DHT22;11953;49.010;8.608;2023-03-26T19:47:15;8.80;99.90
23550;DHT22;11953;49.010;8.608;2023-03-26T19:50:17;8.80;99.90
23550;DHT22;11953;49.010;8.608;2023-03-26T19:53:18;8.80;99.90
23550;DHT22;11953;49.010;8.608;2023-03-26T19:56:13;8.90;99.90
23550;DHT22;11953;49.010;8.608;2023-03-26T19:59:03;8.80;99.90
23550;DHT22;11953;49.010;8.608;2023-03-26T20:01:50;8.80;99.90